sensor_id;sensor_type;location;lat;lon;timestamp;pressure;altitude;pressure_sealevel;temperature;humidity
13800;BME280;6971;50.028;9.258;2023-08-12T00:01:38;99676.31;;;15.63;100.00
13800;BME280;6971;50.028;9.258;2023-08-12T00:06:39;99669.88;;;15.78;100.00
13800;BME280;6971;50.028;9.258;2023-08-12T00:11:39;99662.69;;;15.68;100.00
13800;BME280;6971;50.028;9.258;2023-08-12T00:16:39;99669.72;;;15.69;100.00
13800;BME280;6971;50.028;9.258;2023-08-12T00:21:40;99649.28;;;15.82;100.00
13800;BME280;6971;50.028;9.258;2023-08-12T00:26:40;99648.22;;;15.72;100.00
13800;BME280;6971;50.028;9.258;2023-08-12T00:31:40;99638.88;;;15.66;100.00
13800;BME280;6971;50.028;9.258;2023-08-12T00:36:41;99631.59;;;15.57;100.00
13800;BME280;6971;50.028;9.258;2023-08-12T00:41:44;99635.31;;;15.54;100.00
13800;BME280;6971;50.028;9.258;2023-08-12T00:46:44;99625.53;;;15.55;100.00
13800;BME280;6971;50.028;9.258;2023-08-12T00:51:45;99617.63;;;15.66;100.00
13800;BME280;6971;50.028;9.258;2023-08-12T00:56:47;99620.53;;;15.63;100.00
13800;BME280;6971;50.028;9.258;2023-08-12T01:01:48;99609.56;;;15.68;100.00
13800;BME280;6971;50.028;9.258;2023-08-12T01:06:52;99612.56;;;15.63;100.00
13800;BME280;6971;50.028;9.258;2023-08-12T01:16:57;99606.19;;;15.52;100.00
13800;BME280;6971;50.028;9.258;2023-08-12T01:22:00;99596.84;;;15.60;100.00
13800;BME280;6971;50.028;9.258;2023-08-12T01:27:04;99591.53;;;15.60;100.00
13800;BME280;6971;50.028;9.258;2023-08-12T01:32:30;99581.66;;;15.62;100.00
13800;BME280;6971;50.028;9.258;2023-08-12T01:37:35;99573.22;;;15.68;100.00
13800;BME280;6971;50.028;9.258;2023-08-12T01:42:38;99578.75;;;15.65;100.00
13800;BME280;6971;50.028;9.258;2023-08-12T01:47:42;99570.47;;;15.70;100.00
13800;BME280;6971;50.028;9.258;2023-08-12T01:52:43;99570.97;;;15.75;100.00
13800;BME280;6971;50.028;9.258;2023-08-12T01:57:43;99566.03;;;15.82;100.00
13800;BME280;6971;50.028;9.258;2023-08-12T02:02:44;99560.22;;;15.76;100.00
13800;BME280;6971;50.028;9.258;2023-08-12T02:07:47;99558.06;;;15.82;100.00
13800;BME280;6971;50.028;9.258;2023-08-12T02:12:47;99554.00;;;15.89;100.00
13800;BME280;6971;50.028;9.258;2023-08-12T02:17:49;99551.22;;;15.90;100.00
13800;BME280;6971;50.028;9.258;2023-08-12T02:22:52;99552.94;;;15.91;100.00
13800;BME280;6971;50.028;9.258;2023-08-12T02:27:53;99560.56;;;15.96;100.00
13800;BME280;6971;50.028;9.258;2023-08-12T02:32:53;99551.19;;;16.03;100.00
13800;BME280;6971;50.028;9.258;2023-08-12T02:37:53;99549.94;;;15.96;100.00
13800;BME280;6971;50.028;9.258;2023-08-12T02:42:54;99547.72;;;15.90;100.00
13800;BME280;6971;50.028;9.258;2023-08-12T02:47:54;99548.69;;;15.89;100.00
13800;BME280;6971;50.028;9.258;2023-08-12T02:52:55;99552.59;;;15.96;100.00
13800;BME280;6971;50.028;9.258;2023-08-12T02:57:55;99552.50;;;15.98;100.00
13800;BME280;6971;50.028;9.258;2023-08-12T03:02:56;99549.50;;;16.02;100.00
13800;BME280;6971;50.028;9.258;2023-08-12T03:07:56;99554.34;;;16.09;100.00
13800;BME280;6971;50.028;9.258;2023-08-12T03:12:57;99556.81;;;16.23;100.00
13800;BME280;6971;50.028;9.258;2023-08-12T03:17:58;99564.66;;;16.25;100.00
13800;BME280;6971;50.028;9.258;2023-08-12T03:22:58;99578.81;;;16.25;100.00
13800;BME280;6971;50.028;9.258;2023-08-12T03:28:00;99582.84;;;16.31;100.00
13800;BME280;6971;50.028;9.258;2023-08-12T03:33:00;99581.38;;;16.27;100.00
13800;BME280;6971;50.028;9.258;2023-08-12T03:38:01;99576.75;;;16.29;100.00
13800;BME280;6971;50.028;9.258;2023-08-12T03:43:01;99577.63;;;16.29;100.00
13800;BME280;6971;50.028;9.258;2023-08-12T03:48:02;99589.47;;;16.37;100.00
13800;BME280;6971;50.028;9.258;2023-08-12T03:53:03;99581.38;;;16.38;100.00
13800;BME280;6971;50.028;9.258;2023-08-12T03:58:04;99581.75;;;16.45;100.00
13800;BME280;6971;50.028;9.258;2023-08-12T04:03:05;99595.81;;;16.47;100.00
13800;BME280;6971;50.028;9.258;2023-08-12T04:08:05;99602.09;;;16.57;100.00
13800;BME280;6971;50.028;9.258;2023-08-12T04:13:05;99608.34;;;16.45;100.00
13800;BME280;6971;50.028;9.258;2023-08-12T04:18:06;99593.63;;;16.52;100.00
13800;BME280;6971;50.028;9.258;2023-08-12T04:23:07;99599.44;;;16.46;100.00
13800;BME280;6971;50.028;9.258;2023-08-12T04:28:07;99611.03;;;16.45;100.00
13800;BME280;6971;50.028;9.258;2023-08-12T04:33:07;99607.06;;;16.51;100.00
13800;BME280;6971;50.028;9.258;2023-08-12T04:38:08;99592.28;;;16.47;100.00
13800;BME280;6971;50.028;9.258;2023-08-12T04:43:12;99588.81;;;16.46;100.00
13800;BME280;6971;50.028;9.258;2023-08-12T04:48:13;99579.84;;;16.47;100.00
13800;BME280;6971;50.028;9.258;2023-08-12T04:53:14;99587.06;;;16.45;100.00
13800;BME280;6971;50.028;9.258;2023-08-12T04:58:15;99579.84;;;16.47;100.00
13800;BME280;6971;50.028;9.258;2023-08-12T05:03:15;99566.66;;;16.46;100.00
13800;BME280;6971;50.028;9.258;2023-08-12T05:08:16;99555.09;;;16.58;100.00
13800;BME280;6971;50.028;9.258;2023-08-12T05:13:17;99556.88;;;16.57;100.00
13800;BME280;6971;50.028;9.258;2023-08-12T05:18:17;99560.03;;;16.63;100.00
13800;BME280;6971;50.028;9.258;2023-08-12T05:23:20;99569.25;;;16.70;100.00
13800;BME280;6971;50.028;9.258;2023-08-12T05:28:20;99564.66;;;16.83;100.00
13800;BME280;6971;50.028;9.258;2023-08-12T05:33:21;99570.09;;;16.93;100.00
13800;BME280;6971;50.028;9.258;2023-08-12T05:38:22;99556.59;;;17.08;100.00
13800;BME280;6971;50.028;9.258;2023-08-12T05:43:22;99550.50;;;17.06;100.00
13800;BME280;6971;50.028;9.258;2023-08-12T05:48:22;99567.34;;;17.06;100.00
13800;BME280;6971;50.028;9.258;2023-08-12T05:53:25;99542.19;;;17.22;100.00
13800;BME280;6971;50.028;9.258;2023-08-12T05:58:25;99555.06;;;17.49;100.00
13800;BME280;6971;50.028;9.258;2023-08-12T06:03:25;99541.19;;;17.79;100.00
13800;BME280;6971;50.028;9.258;2023-08-12T06:08:26;99534.94;;;17.90;100.00
13800;BME280;6971;50.028;9.258;2023-08-12T06:13:28;99541.25;;;17.88;100.00
13800;BME280;6971;50.028;9.258;2023-08-12T06:18:28;99551.31;;;18.18;100.00
13800;BME280;6971;50.028;9.258;2023-08-12T06:23:29;99532.06;;;18.35;100.00
13800;BME280;6971;50.028;9.258;2023-08-12T06:28:30;99535.47;;;18.37;100.00
13800;BME280;6971;50.028;9.258;2023-08-12T06:33:33;99543.72;;;18.34;100.00
13800;BME280;6971;50.028;9.258;2023-08-12T06:38:34;99543.19;;;18.62;100.00
13800;BME280;6971;50.028;9.258;2023-08-12T06:43:34;99528.91;;;18.73;100.00
13800;BME280;6971;50.028;9.258;2023-08-12T06:48:35;99535.88;;;18.95;100.00
13800;BME280;6971;50.028;9.258;2023-08-12T06:53:37;99540.81;;;19.00;100.00
13800;BME280;6971;50.028;9.258;2023-08-12T06:58:37;99539.31;;;19.07;100.00
13800;BME280;6971;50.028;9.258;2023-08-12T07:03:38;99540.50;;;19.34;100.00
13800;BME280;6971;50.028;9.258;2023-08-12T07:08:38;99544.50;;;19.50;100.00
13800;BME280;6971;50.028;9.258;2023-08-12T07:13:38;99549.88;;;19.89;100.00
13800;BME280;6971;50.028;9.258;2023-08-12T07:18:39;99545.09;;;20.22;100.00
13800;BME280;6971;50.028;9.258;2023-08-12T07:23:39;99542.53;;;20.41;100.00
13800;BME280;6971;50.028;9.258;2023-08-12T07:28:41;99539.91;;;20.79;100.00
13800;BME280;6971;50.028;9.258;2023-08-12T07:33:42;99545.06;;;21.28;100.00
13800;BME280;6971;50.028;9.258;2023-08-12T07:38:42;99537.75;;;21.48;100.00
13800;BME280;6971;50.028;9.258;2023-08-12T07:43:42;99540.47;;;21.38;100.00
13800;BME280;6971;50.028;9.258;2023-08-12T07:48:43;99539.38;;;21.59;100.00
13800;BME280;6971;50.028;9.258;2023-08-12T07:53:43;99545.19;;;21.91;100.00
13800;BME280;6971;50.028;9.258;2023-08-12T07:58:44;99543.59;;;22.43;100.00
13800;BME280;6971;50.028;9.258;2023-08-12T08:03:45;99552.97;;;22.92;100.00
13800;BME280;6971;50.028;9.258;2023-08-12T08:08:46;99548.66;;;22.73;100.00
13800;BME280;6971;50.028;9.258;2023-08-12T08:13:46;99543.84;;;22.76;100.00
13800;BME280;6971;50.028;9.258;2023-08-12T08:18:47;99555.22;;;22.70;100.00
13800;BME280;6971;50.028;9.258;2023-08-12T08:23:47;99564.03;;;22.89;100.00
13800;BME280;6971;50.028;9.258;2023-08-12T08:28:48;99549.72;;;23.15;100.00
13800;BME280;6971;50.028;9.258;2023-08-12T08:33:48;99546.34;;;23.13;100.00
13800;BME280;6971;50.028;9.258;2023-08-12T08:38:49;99554.78;;;23.26;100.00
13800;BME280;6971;50.028;9.258;2023-08-12T08:43:49;99548.69;;;23.16;100.00
13800;BME280;6971;50.028;9.258;2023-08-12T08:48:50;99556.75;;;23.07;100.00
13800;BME280;6971;50.028;9.258;2023-08-12T08:53:54;99564.78;;;22.99;100.00
13800;BME280;6971;50.028;9.258;2023-08-12T08:58:55;99571.81;;;23.00;100.00
13800;BME280;6971;50.028;9.258;2023-08-12T09:03:57;99573.34;;;23.38;100.00
13800;BME280;6971;50.028;9.258;2023-08-12T09:08:58;99565.03;;;23.99;100.00
13800;BME280;6971;50.028;9.258;2023-08-12T09:13:58;99568.44;;;24.18;100.00
13800;BME280;6971;50.028;9.258;2023-08-12T09:18:58;99565.75;;;24.18;100.00
13800;BME280;6971;50.028;9.258;2023-08-12T09:24:02;99574.47;;;24.03;100.00
13800;BME280;6971;50.028;9.258;2023-08-12T09:29:04;99572.69;;;24.20;100.00
13800;BME280;6971;50.028;9.258;2023-08-12T09:34:05;99570.44;;;24.07;100.00
13800;BME280;6971;50.028;9.258;2023-08-12T09:39:08;99564.22;;;24.23;100.00
13800;BME280;6971;50.028;9.258;2023-08-12T09:44:09;99554.16;;;24.34;100.00
13800;BME280;6971;50.028;9.258;2023-08-12T09:49:10;99556.31;;;24.55;100.00
13800;BME280;6971;50.028;9.258;2023-08-12T09:54:11;99544.66;;;24.63;100.00
13800;BME280;6971;50.028;9.258;2023-08-12T09:59:12;99550.50;;;26.10;86.28
13800;BME280;6971;50.028;9.258;2023-08-12T10:04:17;99521.56;;;27.03;80.13
13800;BME280;6971;50.028;9.258;2023-08-12T10:09:18;99535.38;;;27.45;75.75
13800;BME280;6971;50.028;9.258;2023-08-12T10:14:19;99552.78;;;28.01;78.16
13800;BME280;6971;50.028;9.258;2023-08-12T10:19:23;99554.50;;;27.80;72.12
13800;BME280;6971;50.028;9.258;2023-08-12T10:24:29;99552.31;;;26.87;79.24
13800;BME280;6971;50.028;9.258;2023-08-12T10:29:30;99552.41;;;26.01;83.00
13800;BME280;6971;50.028;9.258;2023-08-12T10:34:30;99547.88;;;25.78;86.35
13800;BME280;6971;50.028;9.258;2023-08-12T10:39:32;99554.00;;;25.96;86.99
13800;BME280;6971;50.028;9.258;2023-08-12T10:44:49;99538.78;;;25.48;86.20
13800;BME280;6971;50.028;9.258;2023-08-12T10:49:52;99519.28;;;25.37;85.44
13800;BME280;6971;50.028;9.258;2023-08-12T10:54:53;99519.34;;;24.89;86.41
13800;BME280;6971;50.028;9.258;2023-08-12T10:59:54;99536.13;;;24.18;99.10
13800;BME280;6971;50.028;9.258;2023-08-12T11:05:03;99567.69;;;23.57;100.00
13800;BME280;6971;50.028;9.258;2023-08-12T11:15:06;99655.91;;;21.93;100.00
13800;BME280;6971;50.028;9.258;2023-08-12T11:20:12;99632.13;;;20.46;100.00
13800;BME280;6971;50.028;9.258;2023-08-12T11:25:13;99593.81;;;20.36;100.00
13800;BME280;6971;50.028;9.258;2023-08-12T11:30:16;99646.63;;;20.34;100.00
13800;BME280;6971;50.028;9.258;2023-08-12T11:35:37;99644.50;;;20.08;100.00
13800;BME280;6971;50.028;9.258;2023-08-12T11:41:00;99602.56;;;19.99;100.00
13800;BME280;6971;50.028;9.258;2023-08-12T11:46:25;99584.25;;;20.04;100.00
13800;BME280;6971;50.028;9.258;2023-08-12T11:51:47;99578.63;;;20.17;100.00
13800;BME280;6971;50.028;9.258;2023-08-12T11:57:09;99609.03;;;20.26;100.00
13800;BME280;6971;50.028;9.258;2023-08-12T12:02:29;99584.53;;;20.20;100.00
13800;BME280;6971;50.028;9.258;2023-08-12T12:07:53;99566.22;;;19.96;100.00
13800;BME280;6971;50.028;9.258;2023-08-12T12:13:14;99587.56;;;19.76;100.00
13800;BME280;6971;50.028;9.258;2023-08-12T12:18:35;99571.91;;;19.52;100.00
13800;BME280;6971;50.028;9.258;2023-08-12T12:23:58;99624.13;;;19.15;100.00
13800;BME280;6971;50.028;9.258;2023-08-12T12:29:18;99605.44;;;19.25;100.00
13800;BME280;6971;50.028;9.258;2023-08-12T12:34:39;99604.09;;;18.78;100.00
13800;BME280;6971;50.028;9.258;2023-08-12T12:40:00;99595.59;;;18.94;100.00
13800;BME280;6971;50.028;9.258;2023-08-12T12:45:20;99580.97;;;18.88;100.00
13800;BME280;6971;50.028;9.258;2023-08-12T12:50:42;99557.72;;;18.79;100.00
13800;BME280;6971;50.028;9.258;2023-08-12T12:56:02;99553.44;;;18.88;100.00
13800;BME280;6971;50.028;9.258;2023-08-12T13:01:24;99547.50;;;18.84;100.00
13800;BME280;6971;50.028;9.258;2023-08-12T13:06:45;99548.53;;;18.93;100.00
13800;BME280;6971;50.028;9.258;2023-08-12T13:12:06;99565.38;;;18.94;100.00
13800;BME280;6971;50.028;9.258;2023-08-12T13:17:27;99557.06;;;19.08;100.00
13800;BME280;6971;50.028;9.258;2023-08-12T13:22:49;99563.78;;;19.43;100.00
13800;BME280;6971;50.028;9.258;2023-08-12T13:28:10;99564.25;;;20.08;100.00
13800;BME280;6971;50.028;9.258;2023-08-12T13:33:31;99562.44;;;21.42;100.00
13800;BME280;6971;50.028;9.258;2023-08-12T13:38:52;99564.19;;;22.16;100.00
13800;BME280;6971;50.028;9.258;2023-08-12T13:44:12;99562.69;;;22.13;100.00
13800;BME280;6971;50.028;9.258;2023-08-12T13:49:33;99557.84;;;22.17;100.00
13800;BME280;6971;50.028;9.258;2023-08-12T13:54:34;99561.44;;;22.08;100.00
13800;BME280;6971;50.028;9.258;2023-08-12T13:59:35;99572.94;;;22.18;100.00
13800;BME280;6971;50.028;9.258;2023-08-12T14:04:35;99558.53;;;22.64;100.00
13800;BME280;6971;50.028;9.258;2023-08-12T14:09:38;99548.09;;;22.61;100.00
13800;BME280;6971;50.028;9.258;2023-08-12T14:14:39;99546.28;;;21.98;100.00
13800;BME280;6971;50.028;9.258;2023-08-12T14:19:40;99546.31;;;22.69;100.00
13800;BME280;6971;50.028;9.258;2023-08-12T14:24:43;99550.38;;;23.08;100.00
13800;BME280;6971;50.028;9.258;2023-08-12T14:29:46;99559.66;;;22.88;100.00
13800;BME280;6971;50.028;9.258;2023-08-12T14:34:46;99556.91;;;22.26;100.00
13800;BME280;6971;50.028;9.258;2023-08-12T14:40:06;99550.13;;;22.93;100.00
13800;BME280;6971;50.028;9.258;2023-08-12T14:45:28;99521.97;;;22.71;100.00
13800;BME280;6971;50.028;9.258;2023-08-12T14:50:49;99514.50;;;22.56;100.00
13800;BME280;6971;50.028;9.258;2023-08-12T14:56:10;99505.06;;;22.79;100.00
13800;BME280;6971;50.028;9.258;2023-08-12T15:01:31;99507.03;;;23.03;100.00
13800;BME280;6971;50.028;9.258;2023-08-12T15:06:51;99506.88;;;23.13;100.00
13800;BME280;6971;50.028;9.258;2023-08-12T15:12:12;99498.81;;;23.21;100.00
13800;BME280;6971;50.028;9.258;2023-08-12T15:17:33;99490.69;;;23.40;100.00
13800;BME280;6971;50.028;9.258;2023-08-12T15:22:53;99476.75;;;23.78;100.00
13800;BME280;6971;50.028;9.258;2023-08-12T15:27:54;99492.53;;;23.47;100.00
13800;BME280;6971;50.028;9.258;2023-08-12T15:32:55;99501.50;;;23.13;100.00
13800;BME280;6971;50.028;9.258;2023-08-12T15:37:55;99511.50;;;22.94;100.00
13800;BME280;6971;50.028;9.258;2023-08-12T15:42:56;99519.22;;;22.89;100.00
13800;BME280;6971;50.028;9.258;2023-08-12T15:47:56;99533.47;;;22.81;100.00
13800;BME280;6971;50.028;9.258;2023-08-12T15:52:56;99523.19;;;22.50;100.00
13800;BME280;6971;50.028;9.258;2023-08-12T15:57:57;99512.03;;;22.37;100.00
13800;BME280;6971;50.028;9.258;2023-08-12T16:02:57;99509.41;;;22.45;100.00
13800;BME280;6971;50.028;9.258;2023-08-12T16:07:58;99518.13;;;22.47;100.00
13800;BME280;6971;50.028;9.258;2023-08-12T16:12:58;99514.88;;;22.62;100.00
13800;BME280;6971;50.028;9.258;2023-08-12T16:17:58;99504.13;;;22.62;100.00
13800;BME280;6971;50.028;9.258;2023-08-12T16:22:59;99495.91;;;22.63;100.00
13800;BME280;6971;50.028;9.258;2023-08-12T16:27:59;99503.38;;;22.78;100.00
13800;BME280;6971;50.028;9.258;2023-08-12T16:32:59;99512.34;;;22.95;100.00
13800;BME280;6971;50.028;9.258;2023-08-12T16:38:00;99508.22;;;22.74;100.00
13800;BME280;6971;50.028;9.258;2023-08-12T16:43:00;99509.28;;;22.81;100.00
13800;BME280;6971;50.028;9.258;2023-08-12T16:48:00;99509.25;;;22.73;100.00
13800;BME280;6971;50.028;9.258;2023-08-12T16:53:01;99515.88;;;22.61;100.00
13800;BME280;6971;50.028;9.258;2023-08-12T16:58:01;99510.44;;;22.52;100.00
13800;BME280;6971;50.028;9.258;2023-08-12T17:03:02;99493.88;;;22.57;100.00
13800;BME280;6971;50.028;9.258;2023-08-12T17:08:02;99496.66;;;22.47;100.00
13800;BME280;6971;50.028;9.258;2023-08-12T17:13:03;99495.91;;;22.63;100.00
13800;BME280;6971;50.028;9.258;2023-08-12T17:18:03;99493.75;;;22.67;100.00
13800;BME280;6971;50.028;9.258;2023-08-12T17:23:04;99496.13;;;22.70;100.00
13800;BME280;6971;50.028;9.258;2023-08-12T17:28:04;99499.75;;;22.61;100.00
13800;BME280;6971;50.028;9.258;2023-08-12T17:33:05;99495.72;;;22.56;100.00
13800;BME280;6971;50.028;9.258;2023-08-12T17:38:06;99493.31;;;22.53;100.00
13800;BME280;6971;50.028;9.258;2023-08-12T17:43:06;99497.19;;;22.24;100.00
13800;BME280;6971;50.028;9.258;2023-08-12T17:48:07;99505.75;;;22.01;100.00
13800;BME280;6971;50.028;9.258;2023-08-12T17:53:08;99505.63;;;22.11;100.00
13800;BME280;6971;50.028;9.258;2023-08-12T17:58:08;99492.06;;;22.13;100.00
13800;BME280;6971;50.028;9.258;2023-08-12T18:03:09;99497.34;;;22.04;100.00
13800;BME280;6971;50.028;9.258;2023-08-12T18:08:09;99504.81;;;22.11;100.00
13800;BME280;6971;50.028;9.258;2023-08-12T18:13:10;99497.25;;;21.88;100.00
13800;BME280;6971;50.028;9.258;2023-08-12T18:18:10;99502.59;;;21.70;100.00
13800;BME280;6971;50.028;9.258;2023-08-12T18:23:10;99514.00;;;21.54;100.00
13800;BME280;6971;50.028;9.258;2023-08-12T18:28:11;99523.16;;;21.33;100.00
13800;BME280;6971;50.028;9.258;2023-08-12T18:33:12;99536.06;;;21.19;100.00
13800;BME280;6971;50.028;9.258;2023-08-12T18:38:12;99542.63;;;21.07;100.00
13800;BME280;6971;50.028;9.258;2023-08-12T18:43:12;99536.28;;;21.08;100.00
13800;BME280;6971;50.028;9.258;2023-08-12T18:48:13;99537.63;;;20.94;100.00
13800;BME280;6971;50.028;9.258;2023-08-12T18:53:13;99543.38;;;20.99;100.00
13800;BME280;6971;50.028;9.258;2023-08-12T18:58:13;99545.50;;;20.85;100.00
13800;BME280;6971;50.028;9.258;2023-08-12T19:03:14;99553.28;;;20.79;100.00
13800;BME280;6971;50.028;9.258;2023-08-12T19:08:14;99553.03;;;20.62;100.00
13800;BME280;6971;50.028;9.258;2023-08-12T19:13:15;99558.25;;;20.64;100.00
13800;BME280;6971;50.028;9.258;2023-08-12T19:18:15;99562.66;;;20.55;100.00
13800;BME280;6971;50.028;9.258;2023-08-12T19:23:15;99571.25;;;20.48;100.00
13800;BME280;6971;50.028;9.258;2023-08-12T19:28:16;99561.00;;;20.44;100.00
13800;BME280;6971;50.028;9.258;2023-08-12T19:33:19;99564.38;;;20.36;100.00
13800;BME280;6971;50.028;9.258;2023-08-12T19:38:20;99577.50;;;20.19;100.00
13800;BME280;6971;50.028;9.258;2023-08-12T19:43:20;99585.25;;;20.13;100.00
13800;BME280;6971;50.028;9.258;2023-08-12T19:48:20;99584.66;;;19.89;100.00
13800;BME280;6971;50.028;9.258;2023-08-12T19:53:21;99585.88;;;19.65;100.00
13800;BME280;6971;50.028;9.258;2023-08-12T19:58:21;99593.03;;;19.55;100.00
13800;BME280;6971;50.028;9.258;2023-08-12T20:03:22;99600.22;;;19.54;100.00
13800;BME280;6971;50.028;9.258;2023-08-12T20:08:23;99589.38;;;19.56;100.00
13800;BME280;6971;50.028;9.258;2023-08-12T20:13:23;99605.97;;;19.50;100.00
13800;BME280;6971;50.028;9.258;2023-08-12T20:18:25;99602.13;;;19.33;100.00
13800;BME280;6971;50.028;9.258;2023-08-12T20:23:25;99594.88;;;19.13;100.00
13800;BME280;6971;50.028;9.258;2023-08-12T20:28:26;99593.34;;;19.11;100.00
13800;BME280;6971;50.028;9.258;2023-08-12T20:33:27;99601.91;;;19.14;100.00
13800;BME280;6971;50.028;9.258;2023-08-12T20:38:27;99608.75;;;19.07;100.00
13800;BME280;6971;50.028;9.258;2023-08-12T20:43:27;99603.88;;;19.12;100.00
13800;BME280;6971;50.028;9.258;2023-08-12T20:48:28;99602.34;;;19.20;100.00
13800;BME280;6971;50.028;9.258;2023-08-12T20:53:28;99609.34;;;19.11;100.00
13800;BME280;6971;50.028;9.258;2023-08-12T20:58:31;99608.50;;;19.10;100.00
13800;BME280;6971;50.028;9.258;2023-08-12T21:03:31;99610.81;;;19.03;100.00
13800;BME280;6971;50.028;9.258;2023-08-12T21:08:31;99613.75;;;19.00;100.00
13800;BME280;6971;50.028;9.258;2023-08-12T21:13:32;99618.09;;;18.91;100.00
13800;BME280;6971;50.028;9.258;2023-08-12T21:18:32;99620.03;;;18.89;100.00
13800;BME280;6971;50.028;9.258;2023-08-12T21:23:32;99633.03;;;18.73;100.00
13800;BME280;6971;50.028;9.258;2023-08-12T21:28:32;99629.50;;;18.51;100.00
13800;BME280;6971;50.028;9.258;2023-08-12T21:33:33;99635.13;;;18.36;100.00
13800;BME280;6971;50.028;9.258;2023-08-12T21:38:35;99639.22;;;18.40;100.00
13800;BME280;6971;50.028;9.258;2023-08-12T21:43:35;99640.09;;;18.41;100.00
13800;BME280;6971;50.028;9.258;2023-08-12T21:48:36;99649.91;;;18.40;100.00
13800;BME280;6971;50.028;9.258;2023-08-12T21:53:36;99646.34;;;18.19;100.00
13800;BME280;6971;50.028;9.258;2023-08-12T21:58:36;99659.84;;;18.17;100.00
13800;BME280;6971;50.028;9.258;2023-08-12T22:03:36;99653.53;;;18.18;100.00
13800;BME280;6971;50.028;9.258;2023-08-12T22:08:37;99653.78;;;18.04;100.00
13800;BME280;6971;50.028;9.258;2023-08-12T22:13:37;99652.81;;;18.05;100.00
13800;BME280;6971;50.028;9.258;2023-08-12T22:18:37;99646.06;;;17.89;100.00
13800;BME280;6971;50.028;9.258;2023-08-12T22:23:41;99640.13;;;17.85;100.00
13800;BME280;6971;50.028;9.258;2023-08-12T22:28:41;99638.94;;;17.78;100.00
13800;BME280;6971;50.028;9.258;2023-08-12T22:33:42;99634.81;;;17.74;100.00
13800;BME280;6971;50.028;9.258;2023-08-12T22:38:42;99640.66;;;17.56;100.00
13800;BME280;6971;50.028;9.258;2023-08-12T22:43:42;99642.25;;;17.47;100.00
13800;BME280;6971;50.028;9.258;2023-08-12T22:48:43;99638.38;;;17.52;100.00
13800;BME280;6971;50.028;9.258;2023-08-12T22:53:43;99638.88;;;17.34;100.00
13800;BME280;6971;50.028;9.258;2023-08-12T22:58:44;99633.19;;;17.27;100.00
13800;BME280;6971;50.028;9.258;2023-08-12T23:03:45;99630.88;;;17.34;100.00
13800;BME280;6971;50.028;9.258;2023-08-12T23:08:45;99629.91;;;17.12;100.00
13800;BME280;6971;50.028;9.258;2023-08-12T23:13:45;99638.72;;;17.01;100.00
13800;BME280;6971;50.028;9.258;2023-08-12T23:18:45;99639.00;;;17.09;100.00
13800;BME280;6971;50.028;9.258;2023-08-12T23:23:46;99638.72;;;17.01;100.00
13800;BME280;6971;50.028;9.258;2023-08-12T23:28:46;99640.41;;;17.02;100.00
13800;BME280;6971;50.028;9.258;2023-08-12T23:33:46;99644.75;;;17.03;100.00
13800;BME280;6971;50.028;9.258;2023-08-12T23:38:47;99650.78;;;16.94;100.00
13800;BME280;6971;50.028;9.258;2023-08-12T23:43:47;99642.81;;;16.82;100.00
13800;BME280;6971;50.028;9.258;2023-08-12T23:48:47;99644.00;;;16.78;100.00
13800;BME280;6971;50.028;9.258;2023-08-12T23:53:49;99640.47;;;16.66;100.00
13800;BME280;6971;50.028;9.258;2023-08-12T23:58:49;99633.81;;;16.61;100.00
